Time;durP1;ratioP1;P1;durP2;ratioP2;P2;SDS_P1;SDS_P2;PMS_P1;PMS_P2;Temp;Humidity;BMP_temperature;BMP_pressure;BME280_temperature;BME280_humidity;BME280_pressure;Samples;Min_cycle;Max_cycle;Signal;HPM_P1;HPM_P2
2022/12/30 00:00:36;;;;;;;4.90;3.42;;;;;;;;;;5069835;28;20089;-44
2022/12/30 00:03:02;;;;;;;5.10;3.55;;;;;;;;;;5086003;28;20127;-44
2022/12/30 00:05:28;;;;;;;5.70;3.72;;;;;;;;;;5088220;28;20076;-44
2022/12/30 00:07:54;;;;;;;4.57;3.15;;;;;;;;;;5088520;28;20466;-45
2022/12/30 00:10:20;;;;;;;4.65;3.47;;;;;;;;;;5084670;28;20058;-43
2022/12/30 00:35:06;;;;;;;5.90;4.22;;;;;;;;;;5109038;28;20108;-43
2022/12/30 00:37:32;;;;;;;4.80;3.80;;;;;;;;;;5109031;28;20028;-43
2022/12/30 00:39:58;;;;;;;5.75;4.03;;;;;;;;;;5109298;28;20023;-44
2022/12/30 00:45:09;;;;;;;5.80;3.90;;;;;;;;;;5109062;28;20577;-44
2022/12/30 00:47:35;;;;;;;4.95;3.30;;;;;;;;;;5107573;28;20032;-43
2022/12/30 00:58:15;;;;;;;6.53;3.97;;;;;;;;;;5108671;28;19992;-43
2022/12/30 01:00:41;;;;;;;4.93;3.58;;;;;;;;;;5108517;28;20063;-44
2022/12/30 01:03:07;;;;;;;4.68;3.15;;;;;;;;;;5107411;28;20065;-44
2022/12/30 06:13:07;;;;;;;4.22;3.17;;;;;;;;;;5101940;28;20185;-49
2022/12/30 06:15:33;;;;;;;4.05;3.15;;;;;;;;;;5107222;28;20482;-51
2022/12/30 06:17:59;;;;;;;3.08;2.70;;;;;;;;;;5107725;28;20513;-47
2022/12/30 06:20:25;;;;;;;3.33;2.80;;;;;;;;;;5107686;28;20020;-50
2022/12/30 06:22:51;;;;;;;4.90;2.92;;;;;;;;;;5107960;28;20027;-46
2022/12/30 06:25:17;;;;;;;3.50;2.83;;;;;;;;;;5109907;28;20084;-48
2022/12/30 06:27:44;;;;;;;2.65;2.45;;;;;;;;;;5111903;28;20061;-50
2022/12/30 06:30:10;;;;;;;4.15;2.65;;;;;;;;;;5110820;28;20051;-50
2022/12/30 06:32:36;;;;;;;3.25;2.70;;;;;;;;;;5112154;28;20031;-47
2022/12/30 06:35:02;;;;;;;2.92;2.60;;;;;;;;;;5109944;28;20066;-49
2022/12/30 06:37:28;;;;;;;3.55;2.95;;;;;;;;;;5111554;28;20090;-48
2022/12/30 06:39:54;;;;;;;3.72;3.05;;;;;;;;;;5111412;28;20098;-49
2022/12/30 06:42:20;;;;;;;4.53;3.33;;;;;;;;;;5113009;27;20032;-47
2022/12/30 06:44:46;;;;;;;3.17;2.70;;;;;;;;;;5090963;28;20035;-48
2022/12/30 06:47:12;;;;;;;4.35;2.90;;;;;;;;;;5091194;28;20107;-48
2022/12/30 06:49:38;;;;;;;5.95;3.47;;;;;;;;;;5091614;28;20055;-47
2022/12/30 06:52:04;;;;;;;3.53;2.63;;;;;;;;;;5091253;28;20074;-49
2022/12/30 06:54:30;;;;;;;4.95;2.85;;;;;;;;;;5110292;28;20478;-48
2022/12/30 06:56:56;;;;;;;8.25;3.88;;;;;;;;;;5111413;28;20020;-49
2022/12/30 06:59:22;;;;;;;5.03;3.67;;;;;;;;;;5110343;28;20512;-47
2022/12/30 07:01:48;;;;;;;7.07;4.15;;;;;;;;;;5108821;28;20057;-49
2022/12/30 07:04:14;;;;;;;7.75;4.35;;;;;;;;;;5108098;28;20028;-49
2022/12/30 07:06:41;;;;;;;7.82;4.72;;;;;;;;;;5108856;28;20032;-50
2022/12/30 07:09:07;;;;;;;7.18;5.10;;;;;;;;;;5109314;27;20027;-48
2022/12/30 07:11:32;;;;;;;9.90;4.95;;;;;;;;;;5106858;28;20046;-47
2022/12/30 07:13:59;;;;;;;6.50;4.35;;;;;;;;;;5109776;28;20080;-49
2022/12/30 07:16:25;;;;;;;9.77;5.63;;;;;;;;;;5110789;28;20036;-48
2022/12/30 07:18:52;;;;;;;7.82;4.65;;;;;;;;;;5111051;28;20402;-49
2022/12/30 07:21:19;;;;;;;7.30;4.60;;;;;;;;;;5110497;28;20031;-47
2022/12/30 07:23:45;;;;;;;5.75;4.05;;;;;;;;;;5108418;28;20031;-49
2022/12/30 07:26:11;;;;;;;7.13;4.20;;;;;;;;;;5107780;28;20438;-48
2022/12/30 07:28:37;;;;;;;6.88;4.47;;;;;;;;;;5110510;28;20129;-48
2022/12/30 07:31:03;;;;;;;8.75;5.55;;;;;;;;;;5103502;28;20102;-48
2022/12/30 07:33:29;;;;;;;9.68;5.07;;;;;;;;;;5103245;28;20535;-49
2022/12/30 07:35:55;;;;;;;7.32;5.50;;;;;;;;;;5094954;28;20028;-50
2022/12/30 07:38:21;;;;;;;7.38;5.82;;;;;;;;;;5107277;28;20494;-47
2022/12/30 07:40:47;;;;;;;11.57;6.32;;;;;;;;;;5103469;28;20032;-48
2022/12/30 07:43:13;;;;;;;7.45;5.40;;;;;;;;;;5092875;28;20101;-47
2022/12/30 07:45:39;;;;;;;7.95;5.15;;;;;;;;;;5097532;28;20172;-50
2022/12/30 07:48:05;;;;;;;10.15;5.50;;;;;;;;;;5108343;28;20094;-48
2022/12/30 07:50:31;;;;;;;9.88;5.50;;;;;;;;;;5099904;28;20160;-49
2022/12/30 07:52:57;;;;;;;8.60;5.82;;;;;;;;;;5101471;28;20417;-48
2022/12/30 07:55:23;;;;;;;10.32;6.10;;;;;;;;;;5101647;28;20402;-47
2022/12/30 07:57:49;;;;;;;12.63;5.80;;;;;;;;;;5098459;28;20511;-47
2022/12/30 08:00:16;;;;;;;9.32;5.28;;;;;;;;;;5102002;28;20467;-48
2022/12/30 08:02:42;;;;;;;7.85;5.22;;;;;;;;;;5101412;28;20031;-50
2022/12/30 08:05:08;;;;;;;9.02;5.28;;;;;;;;;;5104426;27;20478;-47
2022/12/30 08:07:35;;;;;;;7.22;4.97;;;;;;;;;;5108796;28;20054;-48
2022/12/30 08:10:01;;;;;;;11.60;6.00;;;;;;;;;;5105180;28;20039;-50
2022/12/30 08:12:27;;;;;;;9.02;5.45;;;;;;;;;;5105533;28;20088;-47
2022/12/30 08:14:53;;;;;;;9.45;5.65;;;;;;;;;;5108637;27;20490;-46
2022/12/30 08:17:19;;;;;;;9.85;5.30;;;;;;;;;;5109242;27;20024;-49
2022/12/30 08:19:45;;;;;;;7.35;5.05;;;;;;;;;;5108179;27;20019;-48
2022/12/30 08:22:12;;;;;;;10.15;5.22;;;;;;;;;;5105728;27;20095;-47
2022/12/30 08:24:39;;;;;;;12.68;6.05;;;;;;;;;;5107059;27;20032;-48
2022/12/30 08:27:04;;;;;;;13.60;6.57;;;;;;;;;;5105449;27;20089;-52
2022/12/30 08:29:31;;;;;;;9.57;5.95;;;;;;;;;;5104648;28;20855;-48
2022/12/30 08:31:57;;;;;;;10.48;6.18;;;;;;;;;;5110664;27;20035;-47
2022/12/30 08:34:24;;;;;;;10.38;6.78;;;;;;;;;;5106993;28;20035;-48
2022/12/30 08:36:50;;;;;;;14.00;7.55;;;;;;;;;;5109008;27;20024;-48
2022/12/30 08:39:16;;;;;;;11.63;6.70;;;;;;;;;;5108728;27;20073;-47
2022/12/30 08:41:43;;;;;;;9.50;6.10;;;;;;;;;;5112151;27;20216;-50
2022/12/30 08:44:10;;;;;;;13.55;6.80;;;;;;;;;;5107766;28;20528;-48
2022/12/30 08:46:37;;;;;;;17.17;6.90;;;;;;;;;;5089541;28;20027;-48
2022/12/30 08:49:03;;;;;;;10.77;7.38;;;;;;;;;;5106896;28;20023;-48
2022/12/30 08:51:29;;;;;;;12.13;6.82;;;;;;;;;;5107645;28;20083;-50
2022/12/30 08:53:55;;;;;;;13.95;7.80;;;;;;;;;;5088401;28;20027;-50
2022/12/30 08:56:29;;;;;;;12.05;6.82;;;;;;;;;;5107581;28;20016;-50
2022/12/30 08:58:55;;;;;;;12.13;6.75;;;;;;;;;;5107488;27;20027;-49
2022/12/30 09:01:23;;;;;;;14.45;7.38;;;;;;;;;;5108926;27;20145;-47
2022/12/30 09:03:49;;;;;;;13.35;6.53;;;;;;;;;;5107412;28;20028;-51
2022/12/30 09:06:17;;;;;;;14.95;7.38;;;;;;;;;;5108472;27;20110;-51
2022/12/30 09:08:44;;;;;;;12.45;7.40;;;;;;;;;;5107483;28;20490;-51
2022/12/30 09:11:17;;;;;;;12.70;7.65;;;;;;;;;;5107977;28;20053;-51
2022/12/30 09:13:43;;;;;;;13.80;7.13;;;;;;;;;;5105484;28;20020;-48
2022/12/30 09:16:11;;;;;;;12.05;6.35;;;;;;;;;;5107246;28;20274;-47
2022/12/30 09:18:37;;;;;;;12.95;7.18;;;;;;;;;;5107254;28;20062;-51
2022/12/30 09:21:03;;;;;;;20.20;7.18;;;;;;;;;;5106998;27;20132;-48
2022/12/30 09:23:29;;;;;;;12.55;6.65;;;;;;;;;;5107093;28;20032;-48
2022/12/30 09:25:56;;;;;;;12.30;6.80;;;;;;;;;;5107402;27;20022;-49
2022/12/30 09:28:22;;;;;;;16.85;7.10;;;;;;;;;;5107199;28;20024;-48
2022/12/30 09:30:48;;;;;;;10.15;5.78;;;;;;;;;;5106757;28;20020;-51
2022/12/30 09:33:15;;;;;;;12.57;7.07;;;;;;;;;;5107132;28;20032;-49
2022/12/30 09:35:42;;;;;;;10.63;6.20;;;;;;;;;;5109999;27;20012;-48
2022/12/30 09:38:08;;;;;;;10.02;6.13;;;;;;;;;;5107339;28;20053;-50
2022/12/30 09:40:37;;;;;;;11.90;6.22;;;;;;;;;;5106811;28;20506;-47
2022/12/30 09:43:15;;;;;;;10.40;6.18;;;;;;;;;;5119540;28;20019;-50
2022/12/30 09:45:41;;;;;;;10.02;5.95;;;;;;;;;;5128959;28;20042;-51
2022/12/30 09:48:11;;;;;;;9.68;6.00;;;;;;;;;;5129188;28;20026;-49
2022/12/30 09:50:42;;;;;;;13.70;6.50;;;;;;;;;;5128908;28;20027;-50
2022/12/30 09:53:14;;;;;;;9.27;5.43;;;;;;;;;;5128719;28;20046;-49
2022/12/30 09:55:52;;;;;;;10.00;5.78;;;;;;;;;;5128867;28;20049;-47
2022/12/30 09:58:45;;;;;;;10.48;6.32;;;;;;;;;;5110172;28;20031;-51
2022/12/30 10:01:18;;;;;;;10.43;6.70;;;;;;;;;;5090378;28;20497;-50
2022/12/30 10:03:44;;;;;;;14.10;5.90;;;;;;;;;;5117370;27;20118;-48
2022/12/30 10:06:45;;;;;;;11.48;6.03;;;;;;;;;;5132903;27;20031;-50
2022/12/30 10:09:14;;;;;;;10.80;5.80;;;;;;;;;;5029058;28;20159;-50
2022/12/30 10:11:40;;;;;;;13.02;6.30;;;;;;;;;;5113358;27;20729;-51
2022/12/30 10:14:24;;;;;;;11.02;5.93;;;;;;;;;;5132948;27;20031;-51
2022/12/30 10:17:04;;;;;;;9.73;5.28;;;;;;;;;;5132613;27;20039;-48
2022/12/30 10:19:46;;;;;;;9.90;5.75;;;;;;;;;;5130884;27;20031;-48
2022/12/30 10:22:38;;;;;;;11.85;5.40;;;;;;;;;;5132514;27;20023;-47
2022/12/30 10:25:16;;;;;;;9.88;5.32;;;;;;;;;;5085197;27;20047;-52
2022/12/30 10:27:47;;;;;;;8.65;5.25;;;;;;;;;;5111734;28;20027;-47
2022/12/30 10:30:20;;;;;;;13.02;5.78;;;;;;;;;;5111877;28;20019;-48
2022/12/30 10:32:55;;;;;;;11.55;5.88;;;;;;;;;;5111626;28;20024;-50
2022/12/30 10:35:30;;;;;;;15.48;6.00;;;;;;;;;;5111818;28;20065;-47
2022/12/30 10:38:05;;;;;;;9.68;5.40;;;;;;;;;;5103838;28;20032;-49
2022/12/30 10:40:50;;;;;;;8.85;5.75;;;;;;;;;;5091071;28;20028;-51
2022/12/30 10:43:51;;;;;;;12.55;6.47;;;;;;;;;;5091176;28;20514;-51
2022/12/30 10:46:18;;;;;;;9.05;5.85;;;;;;;;;;4988784;28;20031;-51
2022/12/30 10:49:09;;;;;;;11.70;5.53;;;;;;;;;;5070338;28;20032;-48
2022/12/30 10:51:35;;;;;;;11.40;5.95;;;;;;;;;;5091082;28;20040;-50
2022/12/30 10:54:02;;;;;;;9.48;5.65;;;;;;;;;;5090739;28;20032;-48
2022/12/30 10:56:32;;;;;;;11.50;5.72;;;;;;;;;;5090576;28;20051;-51
2022/12/30 10:59:00;;;;;;;9.27;5.72;;;;;;;;;;5101701;28;20039;-49
2022/12/30 11:01:31;;;;;;;7.68;5.20;;;;;;;;;;5110738;28;20027;-48
2022/12/30 11:03:58;;;;;;;12.15;6.30;;;;;;;;;;5109404;28;20080;-48
2022/12/30 11:06:24;;;;;;;13.25;6.05;;;;;;;;;;5105506;28;20042;-49
2022/12/30 11:08:51;;;;;;;11.75;6.57;;;;;;;;;;5105383;28;20034;-50
2022/12/30 11:11:18;;;;;;;9.20;5.70;;;;;;;;;;5109917;28;20024;-50
2022/12/30 11:16:42;;;;;;;10.25;5.93;;;;;;;;;;5104305;28;20047;-48
2022/12/30 11:19:21;;;;;;;8.32;6.20;;;;;;;;;;5102132;28;20020;-51
2022/12/30 11:21:47;;;;;;;12.50;6.00;;;;;;;;;;5109622;28;20059;-50
2022/12/30 11:24:15;;;;;;;9.88;5.65;;;;;;;;;;5111559;28;20588;-51
2022/12/30 11:26:45;;;;;;;12.52;6.70;;;;;;;;;;5110830;28;20062;-51
2022/12/30 11:29:17;;;;;;;8.85;5.38;;;;;;;;;;5110175;28;20105;-50
2022/12/30 11:31:47;;;;;;;7.63;5.10;;;;;;;;;;5109347;28;20031;-50
2022/12/30 11:34:28;;;;;;;9.75;5.25;;;;;;;;;;5110275;28;20050;-49
2022/12/30 11:36:54;;;;;;;9.27;4.82;;;;;;;;;;5110003;28;20023;-49
2022/12/30 11:39:23;;;;;;;11.68;4.88;;;;;;;;;;5104800;28;20020;-49
2022/12/30 11:41:51;;;;;;;8.20;4.72;;;;;;;;;;5094325;28;20024;-50
2022/12/30 11:44:25;;;;;;;13.43;5.78;;;;;;;;;;5093434;28;20502;-51
2022/12/30 11:46:55;;;;;;;12.15;5.75;;;;;;;;;;5110245;28;20528;-50
2022/12/30 11:49:27;;;;;;;16.67;7.75;;;;;;;;;;5110179;28;20028;-50
2022/12/30 11:51:55;;;;;;;13.57;7.75;;;;;;;;;;5096261;28;20367;-47
2022/12/30 11:54:25;;;;;;;26.38;10.45;;;;;;;;;;5104766;28;20499;-48
2022/12/30 11:56:52;;;;;;;22.23;8.55;;;;;;;;;;5099877;28;20394;-48
2022/12/30 11:59:22;;;;;;;13.23;6.75;;;;;;;;;;5108400;28;20020;-49
2022/12/30 12:01:58;;;;;;;10.95;5.88;;;;;;;;;;5103184;28;20564;-47
2022/12/30 12:04:38;;;;;;;14.52;5.75;;;;;;;;;;5091161;28;20050;-49
2022/12/30 12:07:25;;;;;;;10.80;5.47;;;;;;;;;;5088198;28;20479;-49
2022/12/30 12:10:05;;;;;;;10.02;5.05;;;;;;;;;;5115119;27;20027;-48
2022/12/30 12:12:48;;;;;;;9.02;5.00;;;;;;;;;;5108417;27;20035;-47
2022/12/30 12:15:20;;;;;;;11.95;5.45;;;;;;;;;;5105310;27;20527;-49
2022/12/30 12:18:00;;;;;;;10.13;4.47;;;;;;;;;;5087565;28;20418;-48
2022/12/30 12:20:54;;;;;;;8.45;4.88;;;;;;;;;;5098955;28;20024;-48
2022/12/30 12:23:39;;;;;;;8.57;5.20;;;;;;;;;;5102840;28;20089;-48
2022/12/30 12:26:13;;;;;;;9.40;3.90;;;;;;;;;;5107502;27;20068;-49
2022/12/30 12:28:39;;;;;;;;;;;;;;;;;;5100117;28;20519;-48
2022/12/30 12:31:05;;;;;;;10.35;4.65;;;;;;;;;;5100663;28;19998;-48
2022/12/30 12:33:36;;;;;;;10.02;4.70;;;;;;;;;;5101702;27;20039;-48
2022/12/30 12:36:20;;;;;;;10.73;4.75;;;;;;;;;;5101665;28;20031;-49
2022/12/30 12:38:54;;;;;;;8.90;4.65;;;;;;;;;;5104261;27;20152;-50
2022/12/30 12:41:31;;;;;;;9.10;3.88;;;;;;;;;;5113802;27;20019;-49
2022/12/30 12:44:12;;;;;;;11.57;5.22;;;;;;;;;;5116653;27;20027;-49
2022/12/30 12:46:48;;;;;;;13.43;4.80;;;;;;;;;;5108791;27;20032;-51
2022/12/30 12:49:32;;;;;;;9.35;4.57;;;;;;;;;;5107223;27;20030;-49
2022/12/30 12:52:17;;;;;;;9.18;4.82;;;;;;;;;;5111607;27;20027;-48
2022/12/30 12:55:02;;;;;;;8.45;3.97;;;;;;;;;;5112222;27;20019;-46
2022/12/30 12:57:35;;;;;;;10.35;4.65;;;;;;;;;;5107439;27;20047;-46
2022/12/30 13:00:07;;;;;;;10.27;4.60;;;;;;;;;;5106595;27;20037;-50
2022/12/30 13:02:48;;;;;;;9.80;4.60;;;;;;;;;;5099860;28;20035;-47
2022/12/30 13:05:22;;;;;;;11.15;5.10;;;;;;;;;;5069660;28;20031;-48
2022/12/30 13:08:01;;;;;;;11.00;5.15;;;;;;;;;;5069542;28;20077;-50
2022/12/30 13:10:43;;;;;;;9.27;4.60;;;;;;;;;;5086295;28;20051;-48
2022/12/30 13:13:14;;;;;;;14.98;5.32;;;;;;;;;;5085252;28;20040;-47
2022/12/30 13:15:44;;;;;;;11.95;5.38;;;;;;;;;;5086682;28;20043;-49
2022/12/30 13:18:12;;;;;;;10.50;5.85;;;;;;;;;;5086878;28;20028;-50
2022/12/30 13:20:52;;;;;;;12.57;5.90;;;;;;;;;;5086521;28;20460;-48
2022/12/30 13:23:21;;;;;;;12.95;5.40;;;;;;;;;;5086562;28;20028;-49
2022/12/30 13:25:51;;;;;;;10.18;5.53;;;;;;;;;;5086553;28;20016;-48
2022/12/30 13:28:24;;;;;;;11.00;4.78;;;;;;;;;;5086519;28;20080;-46
2022/12/30 13:30:56;;;;;;;10.75;5.68;;;;;;;;;;5086473;28;20526;-46
2022/12/30 13:33:27;;;;;;;12.27;6.18;;;;;;;;;;5086259;28;20441;-44
2022/12/30 13:36:02;;;;;;;15.23;6.03;;;;;;;;;;5086080;28;20406;-48
2022/12/30 13:38:28;;;;;;;12.90;5.97;;;;;;;;;;5086252;28;20031;-47
2022/12/30 13:40:57;;;;;;;13.25;5.70;;;;;;;;;;5086418;28;20371;-45
2022/12/30 13:43:37;;;;;;;9.98;5.93;;;;;;;;;;5086287;28;20035;-46
2022/12/30 13:46:03;;;;;;;9.38;5.93;;;;;;;;;;5086970;28;20028;-44
2022/12/30 13:48:33;;;;;;;15.70;5.85;;;;;;;;;;5086207;28;20494;-47
2022/12/30 13:51:04;;;;;;;15.95;8.27;;;;;;;;;;5086484;28;20023;-48
2022/12/30 13:53:30;;;;;;;12.48;6.38;;;;;;;;;;5086069;28;20537;-47
2022/12/30 13:55:56;;;;;;;16.38;6.53;;;;;;;;;;5086420;28;20028;-48
2022/12/30 13:58:27;;;;;;;10.18;6.20;;;;;;;;;;5086271;28;20039;-48
2022/12/30 14:01:12;;;;;;;12.20;5.60;;;;;;;;;;5086289;28;20107;-47
2022/12/30 14:03:38;;;;;;;12.07;6.07;;;;;;;;;;5086571;28;20107;-47
2022/12/30 14:06:23;;;;;;;13.50;5.30;;;;;;;;;;5086659;28;20546;-46
2022/12/30 14:09:09;;;;;;;12.80;6.70;;;;;;;;;;5086252;28;20031;-48
2022/12/30 14:11:35;;;;;;;11.73;6.43;;;;;;;;;;5086283;28;20058;-46
2022/12/30 14:14:18;;;;;;;18.83;8.73;;;;;;;;;;5086164;28;20103;-48
2022/12/30 14:16:46;;;;;;;13.82;7.20;;;;;;;;;;5086034;28;20024;-46
2022/12/30 14:19:17;;;;;;;13.48;6.90;;;;;;;;;;5086163;28;20337;-46
2022/12/30 14:21:45;;;;;;;11.98;5.93;;;;;;;;;;5085884;28;20024;-46
2022/12/30 14:24:35;;;;;;;8.40;5.40;;;;;;;;;;5085932;28;20324;-44
2022/12/30 14:27:01;;;;;;;10.60;5.53;;;;;;;;;;5073093;28;20487;-46
2022/12/30 14:29:29;;;;;;;10.80;5.63;;;;;;;;;;5085868;28;20562;-47
2022/12/30 14:31:57;;;;;;;8.02;5.15;;;;;;;;;;5086102;28;20020;-46
2022/12/30 14:34:27;;;;;;;8.27;4.70;;;;;;;;;;5085998;28;20232;-45
2022/12/30 14:37:01;;;;;;;7.97;4.63;;;;;;;;;;5067555;28;20078;-46
2022/12/30 14:39:27;;;;;;;8.35;5.15;;;;;;;;;;5085723;28;20032;-47
2022/12/30 14:41:54;;;;;;;7.53;4.68;;;;;;;;;;5086196;28;20039;-46
2022/12/30 14:44:22;;;;;;;11.55;5.00;;;;;;;;;;5086209;28;20081;-46
2022/12/30 14:46:48;;;;;;;9.55;4.57;;;;;;;;;;5089147;28;20032;-49
2022/12/30 14:49:29;;;;;;;7.15;4.30;;;;;;;;;;5089689;28;20029;-45
2022/12/30 14:52:01;;;;;;;8.32;4.50;;;;;;;;;;5089519;28;20051;-47
2022/12/30 14:54:49;;;;;;;9.68;5.00;;;;;;;;;;5089330;28;20352;-46
2022/12/30 14:57:17;;;;;;;8.82;4.20;;;;;;;;;;5089097;28;20123;-45
2022/12/30 15:00:03;;;;;;;8.77;4.47;;;;;;;;;;5089299;28;20103;-44
2022/12/30 15:02:31;;;;;;;10.68;4.45;;;;;;;;;;5072222;28;20105;-47
2022/12/30 15:05:15;;;;;;;6.90;4.03;;;;;;;;;;5089329;28;20058;-44
2022/12/30 15:07:44;;;;;;;12.30;5.10;;;;;;;;;;5089115;28;20082;-45
2022/12/30 15:10:24;;;;;;;9.10;4.93;;;;;;;;;;5089073;28;20127;-45
2022/12/30 15:12:51;;;;;;;7.50;4.47;;;;;;;;;;5089072;28;20090;-46
2022/12/30 15:15:23;;;;;;;6.93;4.00;;;;;;;;;;5089024;28;20119;-44
2022/12/30 15:17:49;;;;;;;8.98;3.55;;;;;;;;;;5070881;28;20081;-45
2022/12/30 15:20:26;;;;;;;6.63;4.03;;;;;;;;;;5088672;28;20055;-47
2022/12/30 15:22:52;;;;;;;6.82;4.05;;;;;;;;;;5089064;28;20473;-48
2022/12/30 15:25:21;;;;;;;7.65;3.83;;;;;;;;;;5088969;28;20028;-45
2022/12/30 15:27:52;;;;;;;10.55;3.80;;;;;;;;;;5089024;28;20453;-45
2022/12/30 15:30:18;;;;;;;8.50;4.00;;;;;;;;;;5088498;28;20032;-46
2022/12/30 15:32:44;;;;;;;7.40;3.67;;;;;;;;;;5088816;28;20024;-45
2022/12/30 15:35:16;;;;;;;6.78;3.95;;;;;;;;;;5088565;28;20020;-47
2022/12/30 15:37:46;;;;;;;8.68;3.40;;;;;;;;;;5088647;28;20091;-46
2022/12/30 15:40:15;;;;;;;8.13;3.78;;;;;;;;;;5088554;28;20048;-46
2022/12/30 15:42:46;;;;;;;12.98;4.18;;;;;;;;;;5088638;28;20020;-48
2022/12/30 15:45:38;;;;;;;7.45;4.10;;;;;;;;;;5088504;28;20020;-45
2022/12/30 15:48:21;;;;;;;10.00;4.35;;;;;;;;;;5084627;28;20093;-45
2022/12/30 15:50:51;;;;;;;7.75;3.97;;;;;;;;;;5088308;28;20027;-44
2022/12/30 15:53:21;;;;;;;8.68;4.03;;;;;;;;;;5088342;28;20024;-47
2022/12/30 15:55:47;;;;;;;12.77;4.25;;;;;;;;;;5088534;28;20147;-45
2022/12/30 15:58:16;;;;;;;8.15;4.15;;;;;;;;;;5088006;28;20056;-45
2022/12/30 16:00:48;;;;;;;9.63;4.35;;;;;;;;;;5088333;28;20024;-45
2022/12/30 16:03:14;;;;;;;9.82;3.92;;;;;;;;;;5088336;28;20021;-47
2022/12/30 16:05:46;;;;;;;12.57;3.97;;;;;;;;;;5088239;28;20382;-45
2022/12/30 16:08:21;;;;;;;11.35;4.70;;;;;;;;;;5087965;28;20020;-45
2022/12/30 16:10:59;;;;;;;9.45;3.92;;;;;;;;;;5088081;28;20024;-46
2022/12/30 16:13:28;;;;;;;6.50;4.25;;;;;;;;;;5087771;28;20527;-46
2022/12/30 16:16:00;;;;;;;13.25;4.75;;;;;;;;;;5088335;28;20455;-46
2022/12/30 16:18:26;;;;;;;9.50;4.60;;;;;;;;;;5087649;28;20056;-46
2022/12/30 16:20:55;;;;;;;8.63;4.00;;;;;;;;;;5087990;28;20465;-46
2022/12/30 16:23:25;;;;;;;8.10;4.50;;;;;;;;;;5087869;28;20044;-46
2022/12/30 16:25:52;;;;;;;9.10;5.15;;;;;;;;;;5087837;28;20540;-44
2022/12/30 16:28:31;;;;;;;13.85;4.95;;;;;;;;;;5087880;28;20028;-46
2022/12/30 16:30:57;;;;;;;8.10;4.75;;;;;;;;;;5087759;28;20267;-47
2022/12/30 16:33:24;;;;;;;9.32;4.93;;;;;;;;;;5087687;28;20032;-48
2022/12/30 16:36:01;;;;;;;6.80;4.18;;;;;;;;;;5088087;28;20034;-46
2022/12/30 16:38:32;;;;;;;8.25;4.68;;;;;;;;;;5087590;28;20058;-46
2022/12/30 16:40:59;;;;;;;11.20;4.50;;;;;;;;;;5087698;28;20039;-48
2022/12/30 16:43:25;;;;;;;8.77;4.75;;;;;;;;;;5087602;28;20403;-49
2022/12/30 16:45:51;;;;;;;6.75;4.40;;;;;;;;;;5087530;28;20055;-47
2022/12/30 16:48:17;;;;;;;11.18;5.10;;;;;;;;;;5087511;28;20070;-47
2022/12/30 16:50:45;;;;;;;10.52;4.82;;;;;;;;;;5087532;28;20031;-47
2022/12/30 16:53:19;;;;;;;9.55;4.70;;;;;;;;;;5087418;28;20077;-48
2022/12/30 16:55:45;;;;;;;8.77;4.55;;;;;;;;;;5087957;28;20052;-46
2022/12/30 16:58:11;;;;;;;8.50;4.82;;;;;;;;;;5087433;28;20525;-45
2022/12/30 17:00:39;;;;;;;9.70;4.82;;;;;;;;;;5087506;28;20024;-46
2022/12/30 17:03:22;;;;;;;8.75;4.45;;;;;;;;;;5094346;28;20024;-46
2022/12/30 17:05:49;;;;;;;7.50;4.43;;;;;;;;;;5100825;28;20103;-45
2022/12/30 17:08:22;;;;;;;10.25;4.05;;;;;;;;;;5107649;28;20024;-45
2022/12/30 17:10:52;;;;;;;11.40;5.13;;;;;;;;;;5101344;28;20027;-45
2022/12/30 17:13:22;;;;;;;7.82;4.30;;;;;;;;;;5108627;28;20818;-49
2022/12/30 17:15:48;;;;;;;11.05;4.93;;;;;;;;;;5108561;28;20502;-46
2022/12/30 17:18:14;;;;;;;10.25;5.53;;;;;;;;;;5109082;28;20490;-46
2022/12/30 17:20:43;;;;;;;8.15;4.53;;;;;;;;;;5107942;28;20027;-45
2022/12/30 17:23:11;;;;;;;11.05;5.15;;;;;;;;;;5107938;28;20694;-46
2022/12/30 17:25:37;;;;;;;9.18;4.72;;;;;;;;;;5104743;28;20034;-45
2022/12/30 17:28:03;;;;;;;12.95;4.78;;;;;;;;;;5107227;28;20418;-44
2022/12/30 17:30:29;;;;;;;10.30;5.13;;;;;;;;;;5109539;28;20028;-44
2022/12/30 17:32:57;;;;;;;9.88;4.30;;;;;;;;;;5107935;28;20028;-45
2022/12/30 17:35:23;;;;;;;9.68;3.90;;;;;;;;;;5106314;28;20036;-46
2022/12/30 17:37:49;;;;;;;10.13;4.75;;;;;;;;;;5098075;28;20548;-48
2022/12/30 17:40:15;;;;;;;9.13;4.53;;;;;;;;;;5103654;28;20070;-46
2022/12/30 17:42:42;;;;;;;8.75;4.28;;;;;;;;;;5109410;28;20501;-45
2022/12/30 17:45:11;;;;;;;7.80;3.90;;;;;;;;;;5109403;28;20024;-44
2022/12/30 17:47:37;;;;;;;8.48;4.85;;;;;;;;;;5109809;28;20032;-44
2022/12/30 17:50:03;;;;;;;10.30;4.90;;;;;;;;;;5109713;28;20035;-47
2022/12/30 17:52:29;;;;;;;8.63;4.63;;;;;;;;;;5109129;28;20465;-46
2022/12/30 17:54:55;;;;;;;9.70;4.47;;;;;;;;;;5109432;28;20028;-45
2022/12/30 17:57:21;;;;;;;7.85;4.35;;;;;;;;;;5106472;28;20478;-44
2022/12/30 17:59:47;;;;;;;7.53;4.30;;;;;;;;;;5102176;28;20553;-44
2022/12/30 18:02:13;;;;;;;7.22;4.40;;;;;;;;;;5109082;28;20020;-46
2022/12/30 18:04:40;;;;;;;8.43;4.85;;;;;;;;;;5097033;28;20406;-45
2022/12/30 18:07:06;;;;;;;6.70;4.20;;;;;;;;;;5108542;28;20039;-45
2022/12/30 18:09:37;;;;;;;11.77;5.35;;;;;;;;;;5108568;28;20047;-45
2022/12/30 18:12:03;;;;;;;11.18;5.55;;;;;;;;;;5109423;28;20047;-45
2022/12/30 18:14:29;;;;;;;12.23;5.13;;;;;;;;;;5109107;28;20035;-46
2022/12/30 18:16:55;;;;;;;8.98;4.90;;;;;;;;;;5106783;28;20121;-45
2022/12/30 18:19:21;;;;;;;8.55;4.55;;;;;;;;;;5108916;28;20128;-44
2022/12/30 18:21:47;;;;;;;7.50;4.28;;;;;;;;;;5110709;28;20471;-47
2022/12/30 18:24:13;;;;;;;10.57;5.18;;;;;;;;;;5111859;28;20055;-46
2022/12/30 18:26:39;;;;;;;9.10;4.57;;;;;;;;;;5113170;28;20442;-44
2022/12/30 18:29:06;;;;;;;9.57;4.70;;;;;;;;;;5111434;28;20112;-45
2022/12/30 18:31:32;;;;;;;8.35;4.68;;;;;;;;;;5094041;28;20557;-47
2022/12/30 18:33:59;;;;;;;10.65;5.72;;;;;;;;;;5111654;28;20116;-45
2022/12/30 18:36:28;;;;;;;11.13;5.75;;;;;;;;;;5107059;28;20036;-45
2022/12/30 18:38:54;;;;;;;11.63;5.32;;;;;;;;;;5099880;27;20034;-48
2022/12/30 18:41:21;;;;;;;11.95;5.30;;;;;;;;;;5102351;28;20100;-47
2022/12/30 18:43:47;;;;;;;11.43;5.20;;;;;;;;;;5108611;28;20038;-45
2022/12/30 18:46:18;;;;;;;9.05;5.13;;;;;;;;;;5104439;28;20569;-44
2022/12/30 18:48:46;;;;;;;8.88;5.57;;;;;;;;;;5104189;28;20027;-47
2022/12/30 18:51:12;;;;;;;13.85;5.82;;;;;;;;;;5102737;28;20032;-45
2022/12/30 18:53:38;;;;;;;11.55;6.25;;;;;;;;;;5103821;28;20107;-44
2022/12/30 18:56:06;;;;;;;9.13;6.18;;;;;;;;;;5104712;28;20028;-45
2022/12/30 18:58:33;;;;;;;10.95;6.05;;;;;;;;;;5111526;28;20386;-45
2022/12/30 19:00:59;;;;;;;14.73;5.40;;;;;;;;;;5110781;28;20032;-46
2022/12/30 19:03:25;;;;;;;6.43;4.75;;;;;;;;;;5114739;27;20741;-45
2022/12/30 19:05:51;;;;;;;8.98;5.25;;;;;;;;;;5110846;28;20034;-45
2022/12/30 19:08:17;;;;;;;8.32;4.53;;;;;;;;;;5107892;28;20020;-47
2022/12/30 19:10:43;;;;;;;8.20;4.40;;;;;;;;;;5093522;28;20046;-47
2022/12/30 19:13:09;;;;;;;10.18;4.88;;;;;;;;;;5093256;28;20113;-44
2022/12/30 19:15:36;;;;;;;7.50;5.07;;;;;;;;;;5098979;28;20036;-44
2022/12/30 19:18:03;;;;;;;9.93;4.55;;;;;;;;;;5108920;28;20043;-45
2022/12/30 19:20:29;;;;;;;6.60;4.60;;;;;;;;;;5107032;27;20065;-46
2022/12/30 19:22:56;;;;;;;10.82;4.90;;;;;;;;;;5109824;28;20020;-45
2022/12/30 19:25:22;;;;;;;12.10;5.30;;;;;;;;;;5100490;28;20046;-44
2022/12/30 19:27:48;;;;;;;13.02;5.45;;;;;;;;;;5091437;28;20527;-45
2022/12/30 19:30:14;;;;;;;9.68;4.90;;;;;;;;;;5097722;28;20027;-46
2022/12/30 19:32:40;;;;;;;11.85;5.32;;;;;;;;;;5092195;28;20112;-45
2022/12/30 19:35:06;;;;;;;12.43;5.20;;;;;;;;;;5107073;28;20451;-47
2022/12/30 19:37:32;;;;;;;9.07;4.70;;;;;;;;;;5104576;28;20028;-48
2022/12/30 19:39:58;;;;;;;8.25;5.05;;;;;;;;;;5109594;28;20023;-45
2022/12/30 19:42:24;;;;;;;6.53;4.18;;;;;;;;;;5121754;27;20037;-47
2022/12/30 19:44:50;;;;;;;8.32;4.57;;;;;;;;;;5117449;27;20058;-45
2022/12/30 19:47:16;;;;;;;8.50;4.88;;;;;;;;;;5109329;28;20024;-44
2022/12/30 19:49:42;;;;;;;10.05;4.47;;;;;;;;;;5108738;28;20027;-49
2022/12/30 19:52:08;;;;;;;8.50;4.55;;;;;;;;;;5108775;28;20178;-44
2022/12/30 19:54:34;;;;;;;7.95;4.55;;;;;;;;;;5108937;28;20167;-47
2022/12/30 19:57:00;;;;;;;8.02;4.35;;;;;;;;;;5108831;28;20030;-45
2022/12/30 19:59:26;;;;;;;7.60;4.43;;;;;;;;;;5109160;28;20499;-45
2022/12/30 20:01:52;;;;;;;8.18;4.20;;;;;;;;;;5107566;28;20387;-49
2022/12/30 20:04:18;;;;;;;9.85;5.13;;;;;;;;;;5107429;28;20099;-48
2022/12/30 20:06:45;;;;;;;10.20;4.68;;;;;;;;;;5108871;28;20031;-46
2022/12/30 20:09:14;;;;;;;8.60;5.07;;;;;;;;;;5087404;28;20039;-45
2022/12/30 20:11:40;;;;;;;7.72;4.80;;;;;;;;;;5105221;28;20059;-46
2022/12/30 20:14:07;;;;;;;8.73;4.30;;;;;;;;;;5089639;28;20042;-47
2022/12/30 20:16:35;;;;;;;13.82;5.40;;;;;;;;;;5107738;28;20031;-48
2022/12/30 20:19:02;;;;;;;12.95;5.25;;;;;;;;;;5107909;28;20060;-45
2022/12/30 20:21:30;;;;;;;8.70;4.78;;;;;;;;;;5102258;28;20106;-45
2022/12/30 20:23:57;;;;;;;10.43;5.00;;;;;;;;;;5103530;28;20039;-44
2022/12/30 20:26:24;;;;;;;6.53;3.97;;;;;;;;;;5105045;28;20049;-45
2022/12/30 20:28:52;;;;;;;7.38;4.07;;;;;;;;;;5088573;28;20027;-48
2022/12/30 20:31:22;;;;;;;13.93;4.72;;;;;;;;;;5107262;28;20095;-47
2022/12/30 20:33:49;;;;;;;7.88;4.22;;;;;;;;;;5103072;28;20035;-49
2022/12/30 20:36:15;;;;;;;10.57;3.88;;;;;;;;;;5106169;28;20031;-46